sensor_id;sensor_type;location;lat;lon;timestamp;temperature;humidity
7496;DHT22;3789;47.064;15.482;2023-04-09T00:01:37;-3.20;99.90
7496;DHT22;3789;47.064;15.482;2023-04-09T00:04:07;-3.40;99.90
7496;DHT22;3789;47.064;15.482;2023-04-09T00:06:44;-3.50;99.90
7496;DHT22;3789;47.064;15.482;2023-04-09T00:09:19;-3.70;99.90
7496;DHT22;3789;47.064;15.482;2023-04-09T00:11:48;-3.80;99.90
7496;DHT22;3789;47.064;15.482;2023-04-09T00:14:19;-3.90;99.90
7496;DHT22;3789;47.064;15.482;2023-04-09T00:16:49;-3.90;99.90
7496;DHT22;3789;47.064;15.482;2023-04-09T00:19:19;-4.00;99.90
7496;DHT22;3789;47.064;15.482;2023-04-09T00:21:58;-4.10;99.90
7496;DHT22;3789;47.064;15.482;2023-04-09T00:24:27;-4.00;99.90
7496;DHT22;3789;47.064;15.482;2023-04-09T00:26:57;-4.20;99.90
7496;DHT22;3789;47.064;15.482;2023-04-09T00:29:25;-4.20;99.90
7496;DHT22;3789;47.064;15.482;2023-04-09T00:31:53;-4.30;99.90
7496;DHT22;3789;47.064;15.482;2023-04-09T00:34:22;-4.40;99.90
7496;DHT22;3789;47.064;15.482;2023-04-09T00:37:07;-4.40;99.90
7496;DHT22;3789;47.064;15.482;2023-04-09T00:39:36;-4.50;99.90
7496;DHT22;3789;47.064;15.482;2023-04-09T00:42:04;-4.60;99.90
7496;DHT22;3789;47.064;15.482;2023-04-09T00:44:32;-3.40;99.90
7496;DHT22;3789;47.064;15.482;2023-04-09T00:47:08;-2.60;99.90
7496;DHT22;3789;47.064;15.482;2023-04-09T00:49:39;-2.00;99.90
7496;DHT22;3789;47.064;15.482;2023-04-09T00:52:08;-1.40;99.90
7496;DHT22;3789;47.064;15.482;2023-04-09T00:54:44;-0.90;99.90
7496;DHT22;3789;47.064;15.482;2023-04-09T00:57:11;-0.50;99.90
7496;DHT22;3789;47.064;15.482;2023-04-09T00:59:40;-0.10;99.90
7496;DHT22;3789;47.064;15.482;2023-04-09T01:02:14;0.20;99.90
7496;DHT22;3789;47.064;15.482;2023-04-09T01:04:42;0.50;99.90
7496;DHT22;3789;47.064;15.482;2023-04-09T01:10:34;0.90;99.90
7496;DHT22;3789;47.064;15.482;2023-04-09T01:13:28;1.20;99.90
7496;DHT22;3789;47.064;15.482;2023-04-09T01:16:05;1.40;99.90
7496;DHT22;3789;47.064;15.482;2023-04-09T01:18:58;1.60;99.90
7496;DHT22;3789;47.064;15.482;2023-04-09T01:21:31;1.80;99.90
7496;DHT22;3789;47.064;15.482;2023-04-09T01:27:07;2.10;99.90
7496;DHT22;3789;47.064;15.482;2023-04-09T01:29:50;2.20;99.90
7496;DHT22;3789;47.064;15.482;2023-04-09T01:32:21;2.30;99.90
7496;DHT22;3789;47.064;15.482;2023-04-09T01:34:54;2.40;99.90
7496;DHT22;3789;47.064;15.482;2023-04-09T01:37:33;2.50;99.90
7496;DHT22;3789;47.064;15.482;2023-04-09T01:40:09;2.50;99.90
7496;DHT22;3789;47.064;15.482;2023-04-09T01:42:39;2.50;99.90
7496;DHT22;3789;47.064;15.482;2023-04-09T01:45:17;2.60;99.90
7496;DHT22;3789;47.064;15.482;2023-04-09T01:47:47;2.60;99.90
7496;DHT22;3789;47.064;15.482;2023-04-09T01:50:18;2.70;99.90
7496;DHT22;3789;47.064;15.482;2023-04-09T01:52:49;2.70;99.90
7496;DHT22;3789;47.064;15.482;2023-04-09T01:55:20;2.80;99.90
7496;DHT22;3789;47.064;15.482;2023-04-09T01:57:50;2.80;99.90
7496;DHT22;3789;47.064;15.482;2023-04-09T02:00:18;2.80;99.90
7496;DHT22;3789;47.064;15.482;2023-04-09T02:03:07;2.90;99.90
7496;DHT22;3789;47.064;15.482;2023-04-09T02:05:45;2.90;99.90
7496;DHT22;3789;47.064;15.482;2023-04-09T02:08:21;3.00;99.90
7496;DHT22;3789;47.064;15.482;2023-04-09T02:11:04;3.00;99.90
7496;DHT22;3789;47.064;15.482;2023-04-09T02:13:34;3.10;99.90
7496;DHT22;3789;47.064;15.482;2023-04-09T02:16:05;3.20;99.90
7496;DHT22;3789;47.064;15.482;2023-04-09T02:18:37;3.20;99.90
7496;DHT22;3789;47.064;15.482;2023-04-09T02:21:18;3.20;99.90
7496;DHT22;3789;47.064;15.482;2023-04-09T02:23:47;3.30;99.90
7496;DHT22;3789;47.064;15.482;2023-04-09T02:26:14;3.30;99.90
7496;DHT22;3789;47.064;15.482;2023-04-09T02:28:43;3.40;99.90
7496;DHT22;3789;47.064;15.482;2023-04-09T02:31:12;3.40;99.90
7496;DHT22;3789;47.064;15.482;2023-04-09T02:33:39;3.40;99.90
7496;DHT22;3789;47.064;15.482;2023-04-09T02:36:16;3.40;99.90
7496;DHT22;3789;47.064;15.482;2023-04-09T02:38:56;3.50;99.90
7496;DHT22;3789;47.064;15.482;2023-04-09T02:41:25;3.40;99.90
7496;DHT22;3789;47.064;15.482;2023-04-09T02:43:57;3.40;99.90
7496;DHT22;3789;47.064;15.482;2023-04-09T02:46:25;3.50;99.90
7496;DHT22;3789;47.064;15.482;2023-04-09T02:48:52;3.50;99.90
7496;DHT22;3789;47.064;15.482;2023-04-09T02:51:23;3.50;99.90
7496;DHT22;3789;47.064;15.482;2023-04-09T02:53:52;3.50;99.90
7496;DHT22;3789;47.064;15.482;2023-04-09T02:56:20;3.50;99.90
7496;DHT22;3789;47.064;15.482;2023-04-09T02:58:50;3.50;99.90
7496;DHT22;3789;47.064;15.482;2023-04-09T03:01:25;3.40;99.90
7496;DHT22;3789;47.064;15.482;2023-04-09T03:03:54;3.50;99.90
7496;DHT22;3789;47.064;15.482;2023-04-09T03:06:26;3.50;99.90
7496;DHT22;3789;47.064;15.482;2023-04-09T03:08:53;3.50;99.90
7496;DHT22;3789;47.064;15.482;2023-04-09T03:11:31;3.50;99.90
7496;DHT22;3789;47.064;15.482;2023-04-09T03:13:59;3.50;99.90
7496;DHT22;3789;47.064;15.482;2023-04-09T03:16:37;3.50;99.90
7496;DHT22;3789;47.064;15.482;2023-04-09T03:19:05;3.50;99.90
7496;DHT22;3789;47.064;15.482;2023-04-09T03:21:33;3.50;99.90
7496;DHT22;3789;47.064;15.482;2023-04-09T03:24:01;3.60;99.90
7496;DHT22;3789;47.064;15.482;2023-04-09T03:26:30;3.50;99.90
7496;DHT22;3789;47.064;15.482;2023-04-09T03:29:06;3.60;99.90
7496;DHT22;3789;47.064;15.482;2023-04-09T03:31:35;3.60;99.90
7496;DHT22;3789;47.064;15.482;2023-04-09T03:34:04;3.50;99.90
7496;DHT22;3789;47.064;15.482;2023-04-09T03:36:36;3.60;99.90
7496;DHT22;3789;47.064;15.482;2023-04-09T03:39:11;3.40;99.90
7496;DHT22;3789;47.064;15.482;2023-04-09T03:41:45;3.50;99.90
7496;DHT22;3789;47.064;15.482;2023-04-09T03:44:15;3.60;99.90
7496;DHT22;3789;47.064;15.482;2023-04-09T03:46:44;3.60;99.90
7496;DHT22;3789;47.064;15.482;2023-04-09T03:49:21;3.60;99.90
7496;DHT22;3789;47.064;15.482;2023-04-09T03:51:50;3.60;99.90
7496;DHT22;3789;47.064;15.482;2023-04-09T03:54:18;3.60;99.90
7496;DHT22;3789;47.064;15.482;2023-04-09T03:56:47;3.60;99.90
7496;DHT22;3789;47.064;15.482;2023-04-09T03:59:25;3.60;99.90
7496;DHT22;3789;47.064;15.482;2023-04-09T04:01:55;3.60;99.90
7496;DHT22;3789;47.064;15.482;2023-04-09T04:04:23;3.60;99.90
7496;DHT22;3789;47.064;15.482;2023-04-09T04:06:53;3.60;99.90
7496;DHT22;3789;47.064;15.482;2023-04-09T04:09:22;3.50;99.90
7496;DHT22;3789;47.064;15.482;2023-04-09T04:11:50;3.60;99.90
7496;DHT22;3789;47.064;15.482;2023-04-09T04:14:19;3.50;99.90
7496;DHT22;3789;47.064;15.482;2023-04-09T04:16:50;3.60;99.90
7496;DHT22;3789;47.064;15.482;2023-04-09T04:19:17;3.60;99.90
7496;DHT22;3789;47.064;15.482;2023-04-09T04:21:47;3.60;99.90
7496;DHT22;3789;47.064;15.482;2023-04-09T04:24:16;3.50;99.90
7496;DHT22;3789;47.064;15.482;2023-04-09T04:26:44;3.50;99.90
7496;DHT22;3789;47.064;15.482;2023-04-09T04:29:16;3.50;99.90
7496;DHT22;3789;47.064;15.482;2023-04-09T04:31:52;3.50;99.90
7496;DHT22;3789;47.064;15.482;2023-04-09T04:34:32;3.60;99.90
7496;DHT22;3789;47.064;15.482;2023-04-09T04:37:07;3.70;99.90
7496;DHT22;3789;47.064;15.482;2023-04-09T04:39:38;3.60;99.90
7496;DHT22;3789;47.064;15.482;2023-04-09T04:42:16;3.60;99.90
7496;DHT22;3789;47.064;15.482;2023-04-09T04:44:50;3.70;99.90
7496;DHT22;3789;47.064;15.482;2023-04-09T04:47:20;3.70;99.90
7496;DHT22;3789;47.064;15.482;2023-04-09T04:49:54;3.80;99.90
7496;DHT22;3789;47.064;15.482;2023-04-09T04:52:27;3.80;99.90
7496;DHT22;3789;47.064;15.482;2023-04-09T04:54:57;3.80;99.90
7496;DHT22;3789;47.064;15.482;2023-04-09T04:57:31;3.80;99.90
7496;DHT22;3789;47.064;15.482;2023-04-09T05:00:26;3.80;99.90
7496;DHT22;3789;47.064;15.482;2023-04-09T05:02:56;3.80;99.90
7496;DHT22;3789;47.064;15.482;2023-04-09T05:05:24;3.90;99.90
7496;DHT22;3789;47.064;15.482;2023-04-09T05:07:51;3.90;99.90
7496;DHT22;3789;47.064;15.482;2023-04-09T05:10:18;4.00;99.90
7496;DHT22;3789;47.064;15.482;2023-04-09T05:12:49;4.00;99.90
7496;DHT22;3789;47.064;15.482;2023-04-09T05:15:18;4.10;99.90
7496;DHT22;3789;47.064;15.482;2023-04-09T05:17:48;4.10;99.90
7496;DHT22;3789;47.064;15.482;2023-04-09T05:20:17;4.20;99.90
7496;DHT22;3789;47.064;15.482;2023-04-09T05:22:45;4.20;99.90
7496;DHT22;3789;47.064;15.482;2023-04-09T05:25:14;4.20;99.90
7496;DHT22;3789;47.064;15.482;2023-04-09T05:27:43;4.30;99.90
7496;DHT22;3789;47.064;15.482;2023-04-09T05:30:12;4.30;99.90
7496;DHT22;3789;47.064;15.482;2023-04-09T05:32:41;4.40;99.90
7496;DHT22;3789;47.064;15.482;2023-04-09T05:35:12;4.50;99.90
7496;DHT22;3789;47.064;15.482;2023-04-09T05:37:39;4.60;99.90
7496;DHT22;3789;47.064;15.482;2023-04-09T05:40:11;4.60;99.90
7496;DHT22;3789;47.064;15.482;2023-04-09T05:42:39;4.60;99.90
7496;DHT22;3789;47.064;15.482;2023-04-09T05:45:13;4.70;99.90
7496;DHT22;3789;47.064;15.482;2023-04-09T05:47:43;4.80;99.90
7496;DHT22;3789;47.064;15.482;2023-04-09T05:50:12;4.70;99.90
7496;DHT22;3789;47.064;15.482;2023-04-09T05:52:41;4.80;99.90
7496;DHT22;3789;47.064;15.482;2023-04-09T05:55:19;4.80;99.90
7496;DHT22;3789;47.064;15.482;2023-04-09T05:57:50;4.80;99.90
7496;DHT22;3789;47.064;15.482;2023-04-09T06:00:21;4.80;99.90
7496;DHT22;3789;47.064;15.482;2023-04-09T06:02:52;4.90;99.90
7496;DHT22;3789;47.064;15.482;2023-04-09T06:05:24;4.90;99.90
7496;DHT22;3789;47.064;15.482;2023-04-09T06:07:54;4.90;99.90
7496;DHT22;3789;47.064;15.482;2023-04-09T06:10:24;4.90;99.90
7496;DHT22;3789;47.064;15.482;2023-04-09T06:12:54;5.00;99.90
7496;DHT22;3789;47.064;15.482;2023-04-09T06:15:24;5.00;99.90
7496;DHT22;3789;47.064;15.482;2023-04-09T06:17:58;5.00;99.90
7496;DHT22;3789;47.064;15.482;2023-04-09T06:20:32;5.00;99.90
7496;DHT22;3789;47.064;15.482;2023-04-09T06:23:02;5.00;99.90
7496;DHT22;3789;47.064;15.482;2023-04-09T06:25:30;5.00;99.90
7496;DHT22;3789;47.064;15.482;2023-04-09T06:27:59;4.00;99.90
7496;DHT22;3789;47.064;15.482;2023-04-09T06:30:30;2.00;99.90
7496;DHT22;3789;47.064;15.482;2023-04-09T06:33:00;0.30;99.90
7496;DHT22;3789;47.064;15.482;2023-04-09T06:35:32;-0.90;99.90
7496;DHT22;3789;47.064;15.482;2023-04-09T06:38:01;-1.50;99.90
7496;DHT22;3789;47.064;15.482;2023-04-09T06:40:29;-2.00;99.90
7496;DHT22;3789;47.064;15.482;2023-04-09T06:42:59;-2.20;99.90
7496;DHT22;3789;47.064;15.482;2023-04-09T06:45:35;-2.40;99.90
7496;DHT22;3789;47.064;15.482;2023-04-09T06:48:09;-2.60;99.90
7496;DHT22;3789;47.064;15.482;2023-04-09T06:50:40;-2.80;99.90
7496;DHT22;3789;47.064;15.482;2023-04-09T06:53:11;-3.00;99.90
7496;DHT22;3789;47.064;15.482;2023-04-09T06:55:40;-3.00;99.90
7496;DHT22;3789;47.064;15.482;2023-04-09T06:58:08;-3.20;99.90
7496;DHT22;3789;47.064;15.482;2023-04-09T07:00:47;-3.30;99.90
7496;DHT22;3789;47.064;15.482;2023-04-09T07:03:16;-3.20;99.90
7496;DHT22;3789;47.064;15.482;2023-04-09T07:05:47;-3.30;99.90
7496;DHT22;3789;47.064;15.482;2023-04-09T07:08:17;-3.30;99.90
7496;DHT22;3789;47.064;15.482;2023-04-09T07:10:55;-3.40;99.90
7496;DHT22;3789;47.064;15.482;2023-04-09T07:13:51;-3.40;99.90
7496;DHT22;3789;47.064;15.482;2023-04-09T07:16:19;-3.40;99.90
7496;DHT22;3789;47.064;15.482;2023-04-09T07:18:55;-3.50;99.90
7496;DHT22;3789;47.064;15.482;2023-04-09T07:21:24;-3.40;99.90
7496;DHT22;3789;47.064;15.482;2023-04-09T07:24:11;-3.40;99.90
7496;DHT22;3789;47.064;15.482;2023-04-09T07:26:46;-3.30;99.90
7496;DHT22;3789;47.064;15.482;2023-04-09T07:29:18;-3.40;99.90
7496;DHT22;3789;47.064;15.482;2023-04-09T07:31:56;-3.50;99.90
7496;DHT22;3789;47.064;15.482;2023-04-09T07:34:25;-3.40;99.90
7496;DHT22;3789;47.064;15.482;2023-04-09T07:36:52;-3.20;99.90
7496;DHT22;3789;47.064;15.482;2023-04-09T07:39:54;-2.00;99.90
7496;DHT22;3789;47.064;15.482;2023-04-09T07:42:22;-0.80;99.90
7496;DHT22;3789;47.064;15.482;2023-04-09T07:44:51;0.10;99.90
7496;DHT22;3789;47.064;15.482;2023-04-09T07:47:22;0.90;99.90
7496;DHT22;3789;47.064;15.482;2023-04-09T07:49:57;1.50;99.90
7496;DHT22;3789;47.064;15.482;2023-04-09T07:52:28;2.10;99.90
7496;DHT22;3789;47.064;15.482;2023-04-09T07:55:01;2.50;99.90
7496;DHT22;3789;47.064;15.482;2023-04-09T07:57:31;2.90;99.90
7496;DHT22;3789;47.064;15.482;2023-04-09T08:00:00;3.20;99.90
7496;DHT22;3789;47.064;15.482;2023-04-09T08:02:29;3.50;99.90
7496;DHT22;3789;47.064;15.482;2023-04-09T08:05:05;3.70;99.90
7496;DHT22;3789;47.064;15.482;2023-04-09T08:07:59;3.30;99.90
7496;DHT22;3789;47.064;15.482;2023-04-09T08:10:31;1.80;99.90
7496;DHT22;3789;47.064;15.482;2023-04-09T08:12:59;0.90;99.90
7496;DHT22;3789;47.064;15.482;2023-04-09T08:15:28;0.40;99.90
7496;DHT22;3789;47.064;15.482;2023-04-09T08:17:59;0.20;99.90
7496;DHT22;3789;47.064;15.482;2023-04-09T08:20:33;0.00;99.90
7496;DHT22;3789;47.064;15.482;2023-04-09T08:23:13;0.10;99.90
7496;DHT22;3789;47.064;15.482;2023-04-09T08:25:42;0.10;99.90
7496;DHT22;3789;47.064;15.482;2023-04-09T08:28:15;0.20;99.90
7496;DHT22;3789;47.064;15.482;2023-04-09T08:30:42;0.20;99.90
7496;DHT22;3789;47.064;15.482;2023-04-09T08:33:11;0.30;99.90
7496;DHT22;3789;47.064;15.482;2023-04-09T08:35:43;0.40;99.90
7496;DHT22;3789;47.064;15.482;2023-04-09T08:38:13;0.80;99.90
7496;DHT22;3789;47.064;15.482;2023-04-09T08:40:48;1.50;99.90
7496;DHT22;3789;47.064;15.482;2023-04-09T08:43:16;2.10;99.90
7496;DHT22;3789;47.064;15.482;2023-04-09T08:45:46;2.70;99.90
7496;DHT22;3789;47.064;15.482;2023-04-09T08:48:24;3.20;99.90
7496;DHT22;3789;47.064;15.482;2023-04-09T08:50:53;3.70;99.90
7496;DHT22;3789;47.064;15.482;2023-04-09T08:53:29;4.10;99.90
7496;DHT22;3789;47.064;15.482;2023-04-09T08:55:58;4.40;99.90
7496;DHT22;3789;47.064;15.482;2023-04-09T08:58:29;4.70;99.90
7496;DHT22;3789;47.064;15.482;2023-04-09T09:01:01;4.90;99.90
7496;DHT22;3789;47.064;15.482;2023-04-09T09:03:31;5.20;99.90
7496;DHT22;3789;47.064;15.482;2023-04-09T09:06:23;5.30;99.90
7496;DHT22;3789;47.064;15.482;2023-04-09T09:09:31;5.40;99.90
7496;DHT22;3789;47.064;15.482;2023-04-09T09:11:59;5.60;99.90
7496;DHT22;3789;47.064;15.482;2023-04-09T09:14:34;5.60;99.90
7496;DHT22;3789;47.064;15.482;2023-04-09T09:17:05;5.60;99.90
7496;DHT22;3789;47.064;15.482;2023-04-09T09:19:34;5.00;99.90
7496;DHT22;3789;47.064;15.482;2023-04-09T09:22:09;3.40;99.90
7496;DHT22;3789;47.064;15.482;2023-04-09T09:24:50;2.40;99.90
7496;DHT22;3789;47.064;15.482;2023-04-09T09:27:39;3.00;99.90
7496;DHT22;3789;47.064;15.482;2023-04-09T09:30:23;3.00;99.90
7496;DHT22;3789;47.064;15.482;2023-04-09T09:33:05;3.10;99.90
7496;DHT22;3789;47.064;15.482;2023-04-09T09:35:52;3.40;99.90
7496;DHT22;3789;47.064;15.482;2023-04-09T09:38:26;3.50;99.90
7496;DHT22;3789;47.064;15.482;2023-04-09T09:40:55;3.20;99.90
7496;DHT22;3789;47.064;15.482;2023-04-09T09:43:24;2.20;99.90
7496;DHT22;3789;47.064;15.482;2023-04-09T09:45:52;1.90;99.90
7496;DHT22;3789;47.064;15.482;2023-04-09T09:48:29;2.00;99.90
7496;DHT22;3789;47.064;15.482;2023-04-09T09:50:59;2.20;99.90
7496;DHT22;3789;47.064;15.482;2023-04-09T09:53:36;2.80;99.90
7496;DHT22;3789;47.064;15.482;2023-04-09T09:56:18;3.60;99.90
7496;DHT22;3789;47.064;15.482;2023-04-09T09:59:25;4.30;99.90
7496;DHT22;3789;47.064;15.482;2023-04-09T10:02:04;5.10;99.90
7496;DHT22;3789;47.064;15.482;2023-04-09T10:04:35;5.80;99.90
7496;DHT22;3789;47.064;15.482;2023-04-09T10:07:06;6.50;99.90
7496;DHT22;3789;47.064;15.482;2023-04-09T10:09:40;7.10;99.90
7496;DHT22;3789;47.064;15.482;2023-04-09T10:12:14;7.40;99.90
7496;DHT22;3789;47.064;15.482;2023-04-09T10:14:57;7.70;99.90
7496;DHT22;3789;47.064;15.482;2023-04-09T10:17:33;7.90;99.90
7496;DHT22;3789;47.064;15.482;2023-04-09T10:20:21;7.90;99.90
7496;DHT22;3789;47.064;15.482;2023-04-09T10:22:56;8.00;99.90
7496;DHT22;3789;47.064;15.482;2023-04-09T10:25:29;8.00;99.90
7496;DHT22;3789;47.064;15.482;2023-04-09T10:28:00;7.90;99.90
7496;DHT22;3789;47.064;15.482;2023-04-09T10:30:38;8.10;99.90
7496;DHT22;3789;47.064;15.482;2023-04-09T10:33:15;8.20;99.90
7496;DHT22;3789;47.064;15.482;2023-04-09T10:35:48;8.20;99.90
7496;DHT22;3789;47.064;15.482;2023-04-09T10:38:32;8.40;99.90
7496;DHT22;3789;47.064;15.482;2023-04-09T10:41:20;8.70;99.90
7496;DHT22;3789;47.064;15.482;2023-04-09T10:43:49;8.80;99.90
7496;DHT22;3789;47.064;15.482;2023-04-09T10:46:36;9.10;99.90
7496;DHT22;3789;47.064;15.482;2023-04-09T10:49:16;8.90;99.90
7496;DHT22;3789;47.064;15.482;2023-04-09T10:52:07;9.00;99.90
7496;DHT22;3789;47.064;15.482;2023-04-09T10:54:55;9.10;99.90
7496;DHT22;3789;47.064;15.482;2023-04-09T10:57:26;9.30;99.90
7496;DHT22;3789;47.064;15.482;2023-04-09T10:59:54;9.20;99.90
7496;DHT22;3789;47.064;15.482;2023-04-09T11:06:04;9.10;99.90
7496;DHT22;3789;47.064;15.482;2023-04-09T11:08:36;9.20;99.90
7496;DHT22;3789;47.064;15.482;2023-04-09T11:11:06;9.30;99.90
7496;DHT22;3789;47.064;15.482;2023-04-09T11:13:39;9.50;99.90
7496;DHT22;3789;47.064;15.482;2023-04-09T11:16:07;9.60;99.90
7496;DHT22;3789;47.064;15.482;2023-04-09T11:18:36;9.70;99.90
7496;DHT22;3789;47.064;15.482;2023-04-09T11:21:05;9.80;99.90
7496;DHT22;3789;47.064;15.482;2023-04-09T11:23:34;10.00;99.90
7496;DHT22;3789;47.064;15.482;2023-04-09T11:26:02;10.00;99.90
7496;DHT22;3789;47.064;15.482;2023-04-09T11:28:34;10.00;99.90
7496;DHT22;3789;47.064;15.482;2023-04-09T11:31:04;10.10;99.90
7496;DHT22;3789;47.064;15.482;2023-04-09T11:33:34;10.00;99.90
7496;DHT22;3789;47.064;15.482;2023-04-09T11:36:04;10.00;99.90
7496;DHT22;3789;47.064;15.482;2023-04-09T11:38:43;10.20;99.90
7496;DHT22;3789;47.064;15.482;2023-04-09T11:41:36;10.00;99.90
7496;DHT22;3789;47.064;15.482;2023-04-09T11:44:08;9.80;99.90
7496;DHT22;3789;47.064;15.482;2023-04-09T11:46:39;9.90;99.90
7496;DHT22;3789;47.064;15.482;2023-04-09T11:49:11;9.80;99.90
7496;DHT22;3789;47.064;15.482;2023-04-09T11:51:42;9.70;99.90
7496;DHT22;3789;47.064;15.482;2023-04-09T11:54:18;9.50;99.90
7496;DHT22;3789;47.064;15.482;2023-04-09T11:56:51;9.60;99.90
7496;DHT22;3789;47.064;15.482;2023-04-09T11:59:26;9.70;99.90
7496;DHT22;3789;47.064;15.482;2023-04-09T12:02:00;9.70;99.90
7496;DHT22;3789;47.064;15.482;2023-04-09T12:04:28;9.20;99.90
7496;DHT22;3789;47.064;15.482;2023-04-09T12:06:59;9.10;99.90
7496;DHT22;3789;47.064;15.482;2023-04-09T12:09:29;9.30;99.90
7496;DHT22;3789;47.064;15.482;2023-04-09T12:11:59;9.50;99.90
7496;DHT22;3789;47.064;15.482;2023-04-09T12:14:31;9.50;99.90
7496;DHT22;3789;47.064;15.482;2023-04-09T12:16:59;9.70;99.90
7496;DHT22;3789;47.064;15.482;2023-04-09T12:19:28;9.90;99.90
7496;DHT22;3789;47.064;15.482;2023-04-09T12:21:57;10.10;99.90
7496;DHT22;3789;47.064;15.482;2023-04-09T12:24:25;10.00;99.90
7496;DHT22;3789;47.064;15.482;2023-04-09T12:26:55;9.50;99.90
7496;DHT22;3789;47.064;15.482;2023-04-09T12:29:29;9.10;99.90
7496;DHT22;3789;47.064;15.482;2023-04-09T12:32:06;9.20;99.90
7496;DHT22;3789;47.064;15.482;2023-04-09T12:34:39;9.50;99.90
7496;DHT22;3789;47.064;15.482;2023-04-09T12:37:08;9.70;99.90
7496;DHT22;3789;47.064;15.482;2023-04-09T12:39:38;9.90;99.90
7496;DHT22;3789;47.064;15.482;2023-04-09T12:42:08;9.90;99.90
7496;DHT22;3789;47.064;15.482;2023-04-09T12:44:39;9.70;99.90
7496;DHT22;3789;47.064;15.482;2023-04-09T12:47:16;9.80;99.90
7496;DHT22;3789;47.064;15.482;2023-04-09T12:49:44;9.80;99.90
7496;DHT22;3789;47.064;15.482;2023-04-09T12:52:14;10.10;99.90
7496;DHT22;3789;47.064;15.482;2023-04-09T12:54:48;10.30;99.90
7496;DHT22;3789;47.064;15.482;2023-04-09T12:57:19;10.40;99.90
7496;DHT22;3789;47.064;15.482;2023-04-09T12:59:46;9.80;99.90
7496;DHT22;3789;47.064;15.482;2023-04-09T13:02:19;9.00;99.90
7496;DHT22;3789;47.064;15.482;2023-04-09T13:04:51;8.30;99.90
7496;DHT22;3789;47.064;15.482;2023-04-09T13:07:27;7.70;99.90
7496;DHT22;3789;47.064;15.482;2023-04-09T13:10:04;7.30;99.90
7496;DHT22;3789;47.064;15.482;2023-04-09T13:12:34;6.90;99.90
7496;DHT22;3789;47.064;15.482;2023-04-09T13:15:10;6.70;99.90
7496;DHT22;3789;47.064;15.482;2023-04-09T13:17:45;6.40;99.90
7496;DHT22;3789;47.064;15.482;2023-04-09T13:20:19;6.40;99.90
7496;DHT22;3789;47.064;15.482;2023-04-09T13:22:49;6.50;99.90
7496;DHT22;3789;47.064;15.482;2023-04-09T13:25:17;6.80;99.90
7496;DHT22;3789;47.064;15.482;2023-04-09T13:27:49;7.10;99.90
7496;DHT22;3789;47.064;15.482;2023-04-09T13:30:20;7.60;99.90
7496;DHT22;3789;47.064;15.482;2023-04-09T13:32:54;7.50;99.90
7496;DHT22;3789;47.064;15.482;2023-04-09T13:35:24;7.50;99.90
7496;DHT22;3789;47.064;15.482;2023-04-09T13:37:52;7.40;99.90
7496;DHT22;3789;47.064;15.482;2023-04-09T13:40:21;7.00;99.90
7496;DHT22;3789;47.064;15.482;2023-04-09T13:42:48;6.80;99.90
7496;DHT22;3789;47.064;15.482;2023-04-09T13:45:20;6.80;99.90
7496;DHT22;3789;47.064;15.482;2023-04-09T13:47:52;6.90;99.90
7496;DHT22;3789;47.064;15.482;2023-04-09T13:50:21;7.40;99.90
7496;DHT22;3789;47.064;15.482;2023-04-09T13:52:51;7.90;99.90
7496;DHT22;3789;47.064;15.482;2023-04-09T13:55:27;8.30;99.90
7496;DHT22;3789;47.064;15.482;2023-04-09T13:57:57;8.70;99.90
7496;DHT22;3789;47.064;15.482;2023-04-09T14:00:28;9.00;99.90
7496;DHT22;3789;47.064;15.482;2023-04-09T14:02:57;9.10;99.90
7496;DHT22;3789;47.064;15.482;2023-04-09T14:05:28;9.20;99.90
7496;DHT22;3789;47.064;15.482;2023-04-09T14:07:59;9.40;99.90
7496;DHT22;3789;47.064;15.482;2023-04-09T14:10:30;9.50;99.90
7496;DHT22;3789;47.064;15.482;2023-04-09T14:12:58;9.40;99.90
7496;DHT22;3789;47.064;15.482;2023-04-09T14:15:31;9.40;99.90
7496;DHT22;3789;47.064;15.482;2023-04-09T14:17:59;9.30;99.90
7496;DHT22;3789;47.064;15.482;2023-04-09T14:20:29;9.30;99.90
7496;DHT22;3789;47.064;15.482;2023-04-09T14:23:00;9.30;99.90
7496;DHT22;3789;47.064;15.482;2023-04-09T14:25:36;9.20;99.90
7496;DHT22;3789;47.064;15.482;2023-04-09T14:28:07;9.20;99.90
7496;DHT22;3789;47.064;15.482;2023-04-09T14:30:37;9.20;99.90
7496;DHT22;3789;47.064;15.482;2023-04-09T14:33:05;9.10;99.90
7496;DHT22;3789;47.064;15.482;2023-04-09T14:35:34;9.10;99.90
7496;DHT22;3789;47.064;15.482;2023-04-09T14:38:04;9.10;99.90
7496;DHT22;3789;47.064;15.482;2023-04-09T14:40:40;9.10;99.90
7496;DHT22;3789;47.064;15.482;2023-04-09T14:43:15;9.10;99.90
7496;DHT22;3789;47.064;15.482;2023-04-09T14:45:44;9.20;99.90
7496;DHT22;3789;47.064;15.482;2023-04-09T14:48:14;9.20;99.90
7496;DHT22;3789;47.064;15.482;2023-04-09T14:54:24;9.20;99.90
7496;DHT22;3789;47.064;15.482;2023-04-09T14:56:53;9.20;99.90
7496;DHT22;3789;47.064;15.482;2023-04-09T14:59:22;9.20;99.90
7496;DHT22;3789;47.064;15.482;2023-04-09T15:01:53;9.20;99.90
7496;DHT22;3789;47.064;15.482;2023-04-09T15:04:22;9.10;99.90
7496;DHT22;3789;47.064;15.482;2023-04-09T15:06:51;9.10;99.90
7496;DHT22;3789;47.064;15.482;2023-04-09T15:09:19;9.10;99.90
7496;DHT22;3789;47.064;15.482;2023-04-09T15:11:46;8.90;99.90
7496;DHT22;3789;47.064;15.482;2023-04-09T15:18:08;8.70;99.90
7496;DHT22;3789;47.064;15.482;2023-04-09T15:20:37;8.30;99.90
7496;DHT22;3789;47.064;15.482;2023-04-09T15:23:09;7.90;99.90
7496;DHT22;3789;47.064;15.482;2023-04-09T15:25:39;7.80;99.90
7496;DHT22;3789;47.064;15.482;2023-04-09T15:28:15;7.50;99.90
7496;DHT22;3789;47.064;15.482;2023-04-09T15:30:43;7.20;99.90
7496;DHT22;3789;47.064;15.482;2023-04-09T15:33:14;7.20;99.90
7496;DHT22;3789;47.064;15.482;2023-04-09T15:35:46;7.00;99.90
7496;DHT22;3789;47.064;15.482;2023-04-09T15:38:22;6.70;99.90
7496;DHT22;3789;47.064;15.482;2023-04-09T15:40:54;6.70;99.90
7496;DHT22;3789;47.064;15.482;2023-04-09T15:43:22;6.60;99.90
7496;DHT22;3789;47.064;15.482;2023-04-09T15:46:05;6.60;99.90
7496;DHT22;3789;47.064;15.482;2023-04-09T15:48:35;6.90;99.90
7496;DHT22;3789;47.064;15.482;2023-04-09T15:51:08;6.90;99.90
7496;DHT22;3789;47.064;15.482;2023-04-09T15:53:38;6.70;99.90
7496;DHT22;3789;47.064;15.482;2023-04-09T15:56:14;6.70;99.90
7496;DHT22;3789;47.064;15.482;2023-04-09T15:58:42;6.50;99.90
7496;DHT22;3789;47.064;15.482;2023-04-09T16:01:11;6.40;99.90
7496;DHT22;3789;47.064;15.482;2023-04-09T16:03:42;6.50;99.90
7496;DHT22;3789;47.064;15.482;2023-04-09T16:06:10;6.50;99.90
7496;DHT22;3789;47.064;15.482;2023-04-09T16:08:42;6.40;99.90
7496;DHT22;3789;47.064;15.482;2023-04-09T16:11:12;6.40;99.90
7496;DHT22;3789;47.064;15.482;2023-04-09T16:13:41;6.40;99.90
7496;DHT22;3789;47.064;15.482;2023-04-09T16:16:11;6.50;99.90
7496;DHT22;3789;47.064;15.482;2023-04-09T16:18:41;6.40;99.90
7496;DHT22;3789;47.064;15.482;2023-04-09T16:21:10;6.40;99.90
7496;DHT22;3789;47.064;15.482;2023-04-09T16:23:38;6.30;99.90
7496;DHT22;3789;47.064;15.482;2023-04-09T16:26:09;6.10;99.90
7496;DHT22;3789;47.064;15.482;2023-04-09T16:28:38;5.90;99.90
7496;DHT22;3789;47.064;15.482;2023-04-09T16:31:07;5.80;99.90
7496;DHT22;3789;47.064;15.482;2023-04-09T16:33:34;5.80;99.90
7496;DHT22;3789;47.064;15.482;2023-04-09T16:36:06;5.90;99.90
7496;DHT22;3789;47.064;15.482;2023-04-09T16:38:35;5.70;99.90
7496;DHT22;3789;47.064;15.482;2023-04-09T16:41:02;5.60;99.90
7496;DHT22;3789;47.064;15.482;2023-04-09T16:43:31;5.70;99.90
7496;DHT22;3789;47.064;15.482;2023-04-09T16:46:03;5.70;99.90
7496;DHT22;3789;47.064;15.482;2023-04-09T16:48:33;5.80;99.90
7496;DHT22;3789;47.064;15.482;2023-04-09T16:51:04;5.80;99.90